Time,TemperatureF,DewpointF,PressureIn,WindDirection,WindDirectionDegrees,WindSpeedMPH,WindSpeedGustMPH,Humidity,HourlyPrecipIn,Conditions,Clouds,dailyrainin,SoftwareType,DateUTC
2013-07-09 00:11:00,51.0,49.0,-100.00,SSE,156,0.0,1.0,92,-99.99,,,-99.99,,2013-07-09 08:11:00,
2013-07-09 00:22:00,51.0,49.0,-100.00,SSE,156,0.0,1.0,92,0.00,,,0.03,,2013-07-09 08:22:00,
2013-07-09 00:33:00,51.0,49.0,-100.00,SSE,156,0.0,1.0,92,0.00,,,0.03,,2013-07-09 08:33:00,
2013-07-09 00:43:00,51.0,49.0,-100.00,SSE,156,0.0,1.0,92,0.00,,,0.03,,2013-07-09 08:43:00,
2013-07-09 00:52:00,51.0,49.0,-100.00,SSE,156,0.0,1.0,92,0.00,,,0.03,,2013-07-09 08:52:00,
2013-07-09 01:22:00,51.0,49.0,-100.00,SSW,195,1.0,2.0,93,0.00,,,0.03,,2013-07-09 09:22:00,
2013-07-09 01:34:00,51.0,49.0,-100.00,SSW,195,1.0,2.0,93,0.00,,,0.03,,2013-07-09 09:34:00,
2013-07-09 01:42:00,51.0,49.0,-100.00,SSW,195,1.0,2.0,93,0.00,,,0.03,,2013-07-09 09:42:00,
2013-07-09 01:52:00,51.0,49.0,-100.00,SSW,195,1.0,2.0,93,0.00,,,0.03,,2013-07-09 09:52:00,
2013-07-09 02:22:00,51.0,50.0,-100.00,SSE,151,2.0,5.0,95,0.00,,,0.03,,2013-07-09 10:22:00,
2013-07-09 02:33:00,51.0,50.0,-100.00,SSE,151,2.0,5.0,95,0.00,,,0.03,,2013-07-09 10:33:00,
2013-07-09 02:42:00,51.0,50.0,-100.00,SSE,151,2.0,5.0,95,0.00,,,0.03,,2013-07-09 10:42:00,
2013-07-09 02:52:00,51.0,50.0,-100.00,SSE,151,2.0,5.0,95,0.00,,,0.03,,2013-07-09 10:52:00,
2013-07-09 03:22:00,50.0,49.0,-100.00,NNE,32,0.0,4.0,97,0.01,,,-99.99,,2013-07-09 11:22:00,
2013-07-09 03:33:00,50.0,49.0,-100.00,NNE,32,0.0,4.0,97,0.01,,,-99.99,,2013-07-09 11:33:00,
2013-07-09 03:42:00,50.0,49.0,-100.00,NNE,32,0.0,4.0,97,0.01,,,-99.99,,2013-07-09 11:42:00,
2013-07-09 03:53:00,50.0,49.0,-100.00,NNE,32,0.0,4.0,97,0.01,,,-99.99,,2013-07-09 11:53:00,
2013-07-09 04:33:00,49.0,48.0,-100.00,NE,40,0.0,1.0,98,0.00,,,0.04,,2013-07-09 12:33:00,
2013-07-09 04:43:00,49.0,48.0,-100.00,NE,40,0.0,1.0,98,0.00,,,0.04,,2013-07-09 12:43:00,
2013-07-09 04:52:00,49.0,48.0,-100.00,NE,40,0.0,1.0,98,0.00,,,0.04,,2013-07-09 12:52:00,
2013-07-09 05:43:00,49.0,49.0,-100.00,ENE,75,1.0,2.0,99,0.00,,,0.04,,2013-07-09 13:43:00,
2013-07-09 05:53:00,49.0,49.0,-100.00,ENE,75,1.0,2.0,99,0.00,,,0.04,,2013-07-09 13:53:00,
2013-07-09 06:22:00,49.0,49.0,-100.00,East,87,0.0,0.0,99,0.00,,,0.04,,2013-07-09 14:22:00,
2013-07-09 06:34:00,49.0,49.0,-100.00,East,87,0.0,0.0,99,0.00,,,0.04,,2013-07-09 14:34:00,
2013-07-09 06:43:00,49.0,49.0,-100.00,East,87,0.0,0.0,99,0.00,,,0.04,,2013-07-09 14:43:00,
2013-07-09 06:53:00,49.0,49.0,-100.00,East,87,0.0,0.0,99,0.00,,,0.04,,2013-07-09 14:53:00,
2013-07-09 07:22:00,51.0,50.0,-100.00,ENE,67,2.0,4.0,98,0.00,,,0.02,,2013-07-09 15:22:00,
2013-07-09 07:33:00,51.0,50.0,-100.00,ENE,67,2.0,4.0,98,0.00,,,0.02,,2013-07-09 15:33:00,
2013-07-09 07:43:00,51.0,50.0,-100.00,ENE,67,2.0,4.0,98,0.00,,,0.02,,2013-07-09 15:43:00,
2013-07-09 07:52:00,51.0,50.0,-100.00,ENE,67,2.0,4.0,98,0.00,,,0.02,,2013-07-09 15:52:00,
2013-07-09 08:33:00,54.0,51.0,-100.00,East,80,2.0,4.0,91,0.00,,,0.01,,2013-07-09 16:33:00,
2013-07-09 08:43:00,54.0,51.0,-100.00,East,80,2.0,4.0,91,0.00,,,0.01,,2013-07-09 16:43:00,
2013-07-09 08:52:00,54.0,51.0,-100.00,East,80,2.0,4.0,91,0.00,,,0.01,,2013-07-09 16:52:00,
2013-07-09 09:45:00,55.0,48.0,-100.00,WNW,291,3.0,6.0,78,0.00,,,-99.99,,2013-07-09 17:45:00,
2013-07-09 09:53:00,55.0,48.0,-100.00,WNW,291,3.0,6.0,78,0.00,,,-99.99,,2013-07-09 17:53:00,
2013-07-09 10:22:00,60.0,51.0,-100.00,WSW,247,3.0,5.0,73,0.00,,,0.01,,2013-07-09 18:22:00,
2013-07-09 10:32:00,60.0,51.0,-100.00,WSW,247,3.0,5.0,73,0.00,,,0.01,,2013-07-09 18:32:00,
2013-07-09 10:42:00,60.0,51.0,-100.00,WSW,247,3.0,5.0,73,0.00,,,0.01,,2013-07-09 18:42:00,
2013-07-09 10:52:00,60.0,51.0,-100.00,WSW,247,3.0,5.0,73,0.00,,,0.01,,2013-07-09 18:52:00,
2013-07-09 11:22:00,58.0,49.0,-100.00,WNW,293,4.0,8.0,72,0.00,,,0.01,,2013-07-09 19:22:00,
2013-07-09 11:33:00,58.0,49.0,-100.00,WNW,293,4.0,8.0,72,0.00,,,0.01,,2013-07-09 19:33:00,
2013-07-09 11:42:00,58.0,49.0,-100.00,WNW,293,4.0,8.0,72,0.00,,,0.01,,2013-07-09 19:42:00,
2013-07-09 11:52:00,58.0,49.0,-100.00,WNW,293,4.0,8.0,72,0.00,,,0.01,,2013-07-09 19:52:00,
2013-07-09 12:21:00,59.0,50.0,-100.00,West,273,4.0,7.0,73,0.00,,,0.01,,2013-07-09 20:21:00,
2013-07-09 12:32:00,59.0,50.0,-100.00,West,273,4.0,7.0,73,0.00,,,0.01,,2013-07-09 20:32:00,
2013-07-09 12:42:00,59.0,50.0,-100.00,West,273,4.0,7.0,73,0.00,,,0.01,,2013-07-09 20:42:00,
2013-07-09 12:52:00,59.0,50.0,-100.00,West,273,4.0,7.0,73,0.00,,,0.01,,2013-07-09 20:52:00,
2013-07-09 13:22:00,60.0,50.0,-100.00,WSW,252,4.0,7.0,70,0.00,,,0.01,,2013-07-09 21:22:00,
2013-07-09 13:32:00,60.0,50.0,-100.00,WSW,252,4.0,7.0,70,0.00,,,0.01,,2013-07-09 21:32:00,
2013-07-09 13:42:00,60.0,50.0,-100.00,WSW,252,4.0,7.0,70,0.00,,,0.01,,2013-07-09 21:42:00,
2013-07-09 13:52:00,60.0,50.0,-100.00,WSW,252,4.0,7.0,70,0.00,,,0.01,,2013-07-09 21:52:00,
2013-07-09 14:22:00,64.0,51.0,-100.00,SSE,148,2.0,7.0,63,0.00,,,0.01,,2013-07-09 22:22:00,
2013-07-09 14:33:00,64.0,51.0,-100.00,SSE,148,2.0,7.0,63,0.00,,,0.01,,2013-07-09 22:33:00,
2013-07-09 14:42:00,64.0,51.0,-100.00,SSE,148,2.0,7.0,63,0.00,,,0.01,,2013-07-09 22:42:00,
2013-07-09 14:53:00,64.0,51.0,-100.00,SSE,148,2.0,7.0,63,0.00,,,0.01,,2013-07-09 22:53:00,
2013-07-09 15:22:00,66.0,48.0,-100.00,WSW,243,4.0,10.0,53,0.00,,,0.01,,2013-07-09 23:22:00,
2013-07-09 15:33:00,66.0,48.0,-100.00,WSW,243,4.0,10.0,53,0.00,,,0.01,,2013-07-09 23:33:00,
2013-07-09 15:43:00,66.0,48.0,-100.00,WSW,243,4.0,10.0,53,0.00,,,0.01,,2013-07-09 23:43:00,
2013-07-09 15:52:00,66.0,48.0,-100.00,WSW,243,4.0,10.0,53,0.00,,,0.01,,2013-07-09 23:52:00,
2013-07-09 16:22:00,68.0,48.0,-100.00,WSW,251,4.0,11.0,49,0.00,,,0.01,,2013-07-10 00:22:00,
2013-07-09 16:33:00,68.0,48.0,-100.00,WSW,251,4.0,11.0,49,0.00,,,0.01,,2013-07-10 00:33:00,
2013-07-09 16:42:00,68.0,48.0,-100.00,WSW,251,4.0,11.0,49,0.00,,,0.01,,2013-07-10 00:42:00,
2013-07-09 16:52:00,68.0,48.0,-100.00,WSW,251,4.0,11.0,49,0.00,,,0.01,,2013-07-10 00:52:00,
2013-07-09 17:22:00,68.0,45.0,-100.00,WSW,252,4.0,10.0,44,0.00,,,0.01,,2013-07-10 01:22:00,
2013-07-09 17:33:00,68.0,45.0,-100.00,WSW,252,4.0,10.0,44,0.00,,,0.01,,2013-07-10 01:33:00,
2013-07-09 17:43:00,68.0,45.0,-100.00,WSW,252,4.0,10.0,44,0.00,,,0.01,,2013-07-10 01:43:00,
2013-07-09 17:52:00,68.0,45.0,-100.00,WSW,252,4.0,10.0,44,0.00,,,0.01,,2013-07-10 01:52:00,
2013-07-09 18:34:00,68.0,46.0,-100.00,West,269,5.0,9.0,45,0.00,,,0.01,,2013-07-10 02:34:00,
2013-07-09 18:42:00,68.0,46.0,-100.00,West,269,5.0,9.0,45,0.00,,,0.01,,2013-07-10 02:42:00,
2013-07-09 18:53:00,68.0,46.0,-100.00,West,269,5.0,9.0,45,0.00,,,0.01,,2013-07-10 02:53:00,
2013-07-09 19:22:00,67.0,46.0,-100.00,WSW,257,4.0,11.0,46,0.00,,,0.01,,2013-07-10 03:22:00,
2013-07-09 19:32:00,67.0,46.0,-100.00,WSW,257,4.0,11.0,46,0.00,,,0.01,,2013-07-10 03:32:00,
2013-07-09 19:43:00,67.0,46.0,-100.00,WSW,257,4.0,11.0,46,0.00,,,0.01,,2013-07-10 03:43:00,
2013-07-09 19:52:00,67.0,46.0,-100.00,WSW,257,4.0,11.0,46,0.00,,,0.01,,2013-07-10 03:52:00,
2013-07-09 20:22:00,66.0,47.0,-100.00,SW,216,4.0,10.0,50,0.00,,,0.01,,2013-07-10 04:22:00,
2013-07-09 20:32:00,66.0,47.0,-100.00,SW,216,4.0,10.0,50,0.00,,,0.01,,2013-07-10 04:32:00,
2013-07-09 20:43:00,66.0,47.0,-100.00,SW,216,4.0,10.0,50,0.00,,,0.01,,2013-07-10 04:43:00,
2013-07-09 20:52:00,66.0,47.0,-100.00,SW,216,4.0,10.0,50,0.00,,,0.01,,2013-07-10 04:52:00,
2013-07-09 21:22:00,61.0,46.0,-100.00,SW,220,2.0,7.0,57,0.00,,,0.01,,2013-07-10 05:22:00,
2013-07-09 21:32:00,61.0,46.0,-100.00,SW,220,2.0,7.0,57,0.00,,,0.01,,2013-07-10 05:32:00,
2013-07-09 21:42:00,61.0,46.0,-100.00,SW,220,2.0,7.0,57,0.00,,,0.01,,2013-07-10 05:42:00,
2013-07-09 21:52:00,61.0,46.0,-100.00,SW,220,2.0,7.0,57,0.00,,,0.01,,2013-07-10 05:52:00,
2013-07-09 22:21:00,59.0,46.0,-100.00,ESE,120,1.0,6.0,63,0.00,,,0.01,,2013-07-10 06:21:00,
2013-07-09 22:32:00,59.0,46.0,-100.00,ESE,120,1.0,6.0,63,0.00,,,0.01,,2013-07-10 06:32:00,
2013-07-09 22:42:00,59.0,46.0,-100.00,ESE,120,1.0,6.0,63,0.00,,,0.01,,2013-07-10 06:42:00,
2013-07-09 22:52:00,59.0,46.0,-100.00,ESE,120,1.0,6.0,63,0.00,,,0.01,,2013-07-10 06:52:00,
2013-07-09 23:11:00,54.0,47.0,-100.00,East,90,1.0,2.0,76,-99.99,,,-99.99,,2013-07-10 07:11:00,
2013-07-09 23:32:00,54.0,47.0,-100.00,East,90,1.0,2.0,76,0.00,,,0.01,,2013-07-10 07:32:00,
2013-07-09 23:43:00,54.0,47.0,-100.00,East,90,1.0,2.0,76,0.00,,,0.01,,2013-07-10 07:43:00,
2013-07-09 23:53:00,54.0,47.0,-100.00,East,90,1.0,2.0,76,0.00,,,0.01,,2013-07-10 07:53:00,